sensor_id;sensor_type;location;lat;lon;timestamp;P1;durP1;ratioP1;P2;durP2;ratioP2
70981;SDS011;58640;51.320;9.456;2023-05-06T00:00:58;1.65;;;0.93;;
70981;SDS011;58640;51.320;9.456;2023-05-06T00:03:23;0.68;;;0.68;;
70981;SDS011;58640;51.320;9.456;2023-05-06T00:05:49;2.33;;;1.10;;
70981;SDS011;58640;51.320;9.456;2023-05-06T00:08:14;1.20;;;1.10;;
70981;SDS011;58640;51.320;9.456;2023-05-06T00:10:40;4.63;;;1.25;;
70981;SDS011;58640;51.320;9.456;2023-05-06T00:13:05;1.27;;;1.10;;
70981;SDS011;58640;51.320;9.456;2023-05-06T00:15:32;1.00;;;0.98;;
70981;SDS011;58640;51.320;9.456;2023-05-06T00:17:58;2.30;;;0.88;;
70981;SDS011;58640;51.320;9.456;2023-05-06T00:20:24;0.93;;;0.93;;
70981;SDS011;58640;51.320;9.456;2023-05-06T00:22:51;2.15;;;1.02;;
70981;SDS011;58640;51.320;9.456;2023-05-06T00:25:16;4.45;;;1.17;;
70981;SDS011;58640;51.320;9.456;2023-05-06T00:27:42;1.08;;;1.08;;
70981;SDS011;58640;51.320;9.456;2023-05-06T00:30:07;1.65;;;1.30;;
70981;SDS011;58640;51.320;9.456;2023-05-06T00:32:33;2.05;;;1.40;;
70981;SDS011;58640;51.320;9.456;2023-05-06T00:34:58;1.58;;;1.15;;
70981;SDS011;58640;51.320;9.456;2023-05-06T00:37:24;2.05;;;1.08;;
70981;SDS011;58640;51.320;9.456;2023-05-06T00:39:49;2.13;;;1.20;;
70981;SDS011;58640;51.320;9.456;2023-05-06T00:42:14;2.15;;;1.30;;
70981;SDS011;58640;51.320;9.456;2023-05-06T00:44:40;1.45;;;1.35;;
70981;SDS011;58640;51.320;9.456;2023-05-06T00:47:05;1.45;;;1.20;;
70981;SDS011;58640;51.320;9.456;2023-05-06T00:49:31;5.65;;;1.60;;
70981;SDS011;58640;51.320;9.456;2023-05-06T00:51:57;2.38;;;1.40;;
70981;SDS011;58640;51.320;9.456;2023-05-06T00:54:24;3.30;;;1.40;;
70981;SDS011;58640;51.320;9.456;2023-05-06T00:56:50;1.50;;;1.30;;
70981;SDS011;58640;51.320;9.456;2023-05-06T00:59:16;2.00;;;1.50;;
70981;SDS011;58640;51.320;9.456;2023-05-06T01:01:41;1.95;;;1.63;;
70981;SDS011;58640;51.320;9.456;2023-05-06T01:04:07;6.00;;;1.70;;
70981;SDS011;58640;51.320;9.456;2023-05-06T01:15:01;2.35;;;1.80;;
70981;SDS011;58640;51.320;9.456;2023-05-06T01:17:30;1.70;;;1.50;;
70981;SDS011;58640;51.320;9.456;2023-05-06T01:19:57;3.17;;;2.15;;
70981;SDS011;58640;51.320;9.456;2023-05-06T01:22:25;8.32;;;2.05;;
70981;SDS011;58640;51.320;9.456;2023-05-06T01:24:54;2.67;;;2.20;;
70981;SDS011;58640;51.320;9.456;2023-05-06T01:27:20;2.20;;;2.00;;
70981;SDS011;58640;51.320;9.456;2023-05-06T01:29:45;2.13;;;2.03;;
70981;SDS011;58640;51.320;9.456;2023-05-06T01:35:01;4.05;;;3.22;;
70981;SDS011;58640;51.320;9.456;2023-05-06T01:37:47;3.33;;;2.83;;
70981;SDS011;58640;51.320;9.456;2023-05-06T01:40:24;4.28;;;2.95;;
70981;SDS011;58640;51.320;9.456;2023-05-06T01:42:51;3.50;;;3.20;;
70981;SDS011;58640;51.320;9.456;2023-05-06T01:45:18;3.00;;;2.70;;
70981;SDS011;58640;51.320;9.456;2023-05-06T01:47:46;13.70;;;5.13;;
70981;SDS011;58640;51.320;9.456;2023-05-06T01:50:13;10.55;;;6.57;;
70981;SDS011;58640;51.320;9.456;2023-05-06T01:52:39;10.68;;;6.55;;
70981;SDS011;58640;51.320;9.456;2023-05-06T01:55:05;10.00;;;6.18;;
70981;SDS011;58640;51.320;9.456;2023-05-06T01:57:31;5.78;;;5.18;;
70981;SDS011;58640;51.320;9.456;2023-05-06T01:59:56;5.20;;;4.28;;
70981;SDS011;58640;51.320;9.456;2023-05-06T02:02:21;7.32;;;4.88;;
70981;SDS011;58640;51.320;9.456;2023-05-06T02:04:48;6.15;;;5.25;;
70981;SDS011;58640;51.320;9.456;2023-05-06T02:07:13;7.47;;;4.45;;
70981;SDS011;58640;51.320;9.456;2023-05-06T02:09:38;5.53;;;5.00;;
70981;SDS011;58640;51.320;9.456;2023-05-06T02:12:04;5.95;;;5.25;;
70981;SDS011;58640;51.320;9.456;2023-05-06T02:14:29;7.70;;;4.95;;
70981;SDS011;58640;51.320;9.456;2023-05-06T02:16:55;7.60;;;5.88;;
70981;SDS011;58640;51.320;9.456;2023-05-06T02:19:20;5.57;;;4.97;;
70981;SDS011;58640;51.320;9.456;2023-05-06T02:21:46;5.97;;;5.38;;
70981;SDS011;58640;51.320;9.456;2023-05-06T02:24:11;6.40;;;5.72;;
70981;SDS011;58640;51.320;9.456;2023-05-06T02:26:36;6.95;;;6.00;;
70981;SDS011;58640;51.320;9.456;2023-05-06T02:29:02;9.10;;;5.57;;
70981;SDS011;58640;51.320;9.456;2023-05-06T02:31:27;7.47;;;6.07;;
70981;SDS011;58640;51.320;9.456;2023-05-06T02:33:52;7.00;;;5.47;;
70981;SDS011;58640;51.320;9.456;2023-05-06T02:36:18;7.47;;;6.47;;
70981;SDS011;58640;51.320;9.456;2023-05-06T02:38:43;10.05;;;7.40;;
70981;SDS011;58640;51.320;9.456;2023-05-06T02:41:08;8.55;;;6.95;;
70981;SDS011;58640;51.320;9.456;2023-05-06T02:43:34;9.05;;;7.88;;
70981;SDS011;58640;51.320;9.456;2023-05-06T02:46:00;8.55;;;7.63;;
70981;SDS011;58640;51.320;9.456;2023-05-06T02:48:25;11.00;;;8.43;;
70981;SDS011;58640;51.320;9.456;2023-05-06T02:50:50;13.20;;;8.82;;
70981;SDS011;58640;51.320;9.456;2023-05-06T02:53:16;11.05;;;9.43;;
70981;SDS011;58640;51.320;9.456;2023-05-06T02:55:41;10.73;;;9.52;;
70981;SDS011;58640;51.320;9.456;2023-05-06T02:58:06;13.02;;;9.38;;
70981;SDS011;58640;51.320;9.456;2023-05-06T03:00:32;13.20;;;9.85;;
70981;SDS011;58640;51.320;9.456;2023-05-06T03:02:58;14.00;;;9.90;;
70981;SDS011;58640;51.320;9.456;2023-05-06T03:05:23;12.63;;;10.18;;
70981;SDS011;58640;51.320;9.456;2023-05-06T03:07:48;14.00;;;10.38;;
70981;SDS011;58640;51.320;9.456;2023-05-06T03:10:14;13.40;;;9.63;;
70981;SDS011;58640;51.320;9.456;2023-05-06T03:12:39;11.38;;;9.35;;
70981;SDS011;58640;51.320;9.456;2023-05-06T03:15:05;11.18;;;8.40;;
70981;SDS011;58640;51.320;9.456;2023-05-06T03:17:31;14.63;;;8.52;;
70981;SDS011;58640;51.320;9.456;2023-05-06T03:19:56;9.20;;;7.63;;
70981;SDS011;58640;51.320;9.456;2023-05-06T03:22:21;9.90;;;8.00;;
70981;SDS011;58640;51.320;9.456;2023-05-06T03:24:47;12.48;;;8.65;;
70981;SDS011;58640;51.320;9.456;2023-05-06T03:27:12;9.73;;;8.35;;
70981;SDS011;58640;51.320;9.456;2023-05-06T03:29:37;11.15;;;8.30;;
70981;SDS011;58640;51.320;9.456;2023-05-06T03:32:03;12.43;;;8.10;;
70981;SDS011;58640;51.320;9.456;2023-05-06T03:34:29;10.98;;;8.27;;
70981;SDS011;58640;51.320;9.456;2023-05-06T03:36:54;10.93;;;8.43;;
70981;SDS011;58640;51.320;9.456;2023-05-06T03:39:21;10.07;;;8.52;;
70981;SDS011;58640;51.320;9.456;2023-05-06T03:41:46;9.70;;;7.93;;
70981;SDS011;58640;51.320;9.456;2023-05-06T03:44:12;11.15;;;8.80;;
70981;SDS011;58640;51.320;9.456;2023-05-06T03:46:37;10.55;;;8.40;;
70981;SDS011;58640;51.320;9.456;2023-05-06T03:49:04;11.00;;;8.63;;
70981;SDS011;58640;51.320;9.456;2023-05-06T03:51:29;9.43;;;7.25;;
70981;SDS011;58640;51.320;9.456;2023-05-06T03:53:55;10.63;;;8.32;;
70981;SDS011;58640;51.320;9.456;2023-05-06T03:56:22;10.10;;;8.23;;
70981;SDS011;58640;51.320;9.456;2023-05-06T03:58:48;11.75;;;8.90;;
70981;SDS011;58640;51.320;9.456;2023-05-06T04:01:13;15.10;;;9.57;;
70981;SDS011;58640;51.320;9.456;2023-05-06T04:03:38;11.50;;;7.97;;
70981;SDS011;58640;51.320;9.456;2023-05-06T04:06:04;11.13;;;8.60;;
70981;SDS011;58640;51.320;9.456;2023-05-06T04:08:30;9.82;;;7.75;;
70981;SDS011;58640;51.320;9.456;2023-05-06T04:10:56;12.45;;;8.07;;
70981;SDS011;58640;51.320;9.456;2023-05-06T04:13:21;10.02;;;7.85;;
70981;SDS011;58640;51.320;9.456;2023-05-06T04:15:47;11.75;;;8.38;;
70981;SDS011;58640;51.320;9.456;2023-05-06T04:18:13;11.00;;;7.28;;
70981;SDS011;58640;51.320;9.456;2023-05-06T04:20:44;13.52;;;8.57;;
70981;SDS011;58640;51.320;9.456;2023-05-06T04:23:11;10.63;;;8.23;;
70981;SDS011;58640;51.320;9.456;2023-05-06T04:25:37;10.88;;;9.00;;
70981;SDS011;58640;51.320;9.456;2023-05-06T04:28:03;10.23;;;7.55;;
70981;SDS011;58640;51.320;9.456;2023-05-06T04:30:29;11.07;;;7.93;;
70981;SDS011;58640;51.320;9.456;2023-05-06T04:32:54;10.55;;;7.68;;
70981;SDS011;58640;51.320;9.456;2023-05-06T04:35:19;11.18;;;8.68;;
70981;SDS011;58640;51.320;9.456;2023-05-06T04:37:45;10.07;;;7.82;;
70981;SDS011;58640;51.320;9.456;2023-05-06T04:40:11;11.15;;;7.75;;
70981;SDS011;58640;51.320;9.456;2023-05-06T04:42:37;11.65;;;7.32;;
70981;SDS011;58640;51.320;9.456;2023-05-06T04:45:03;14.07;;;7.63;;
70981;SDS011;58640;51.320;9.456;2023-05-06T04:47:29;10.52;;;7.65;;
70981;SDS011;58640;51.320;9.456;2023-05-06T04:49:55;10.70;;;7.57;;
70981;SDS011;58640;51.320;9.456;2023-05-06T04:52:21;7.75;;;5.97;;
70981;SDS011;58640;51.320;9.456;2023-05-06T04:54:46;9.13;;;6.90;;
70981;SDS011;58640;51.320;9.456;2023-05-06T04:57:11;9.23;;;6.85;;
70981;SDS011;58640;51.320;9.456;2023-05-06T04:59:37;9.90;;;7.03;;
70981;SDS011;58640;51.320;9.456;2023-05-06T05:02:02;10.27;;;7.45;;
70981;SDS011;58640;51.320;9.456;2023-05-06T05:04:27;9.02;;;6.55;;
70981;SDS011;58640;51.320;9.456;2023-05-06T05:06:53;7.40;;;6.20;;
70981;SDS011;58640;51.320;9.456;2023-05-06T05:09:18;8.52;;;7.03;;
70981;SDS011;58640;51.320;9.456;2023-05-06T05:11:43;9.48;;;7.10;;
70981;SDS011;58640;51.320;9.456;2023-05-06T05:14:09;9.23;;;6.60;;
70981;SDS011;58640;51.320;9.456;2023-05-06T05:16:34;8.50;;;6.10;;
70981;SDS011;58640;51.320;9.456;2023-05-06T05:19:00;9.40;;;6.20;;
70981;SDS011;58640;51.320;9.456;2023-05-06T05:21:25;8.32;;;6.68;;
70981;SDS011;58640;51.320;9.456;2023-05-06T05:23:51;9.02;;;6.38;;
70981;SDS011;58640;51.320;9.456;2023-05-06T05:26:16;8.88;;;6.63;;
70981;SDS011;58640;51.320;9.456;2023-05-06T05:28:42;11.13;;;7.18;;
70981;SDS011;58640;51.320;9.456;2023-05-06T05:31:08;8.60;;;6.35;;
70981;SDS011;58640;51.320;9.456;2023-05-06T05:33:33;6.70;;;5.78;;
70981;SDS011;58640;51.320;9.456;2023-05-06T05:35:58;8.68;;;6.18;;
70981;SDS011;58640;51.320;9.456;2023-05-06T05:38:24;7.93;;;5.90;;
70981;SDS011;58640;51.320;9.456;2023-05-06T05:40:49;9.45;;;7.13;;
70981;SDS011;58640;51.320;9.456;2023-05-06T05:43:15;8.73;;;5.82;;
70981;SDS011;58640;51.320;9.456;2023-05-06T05:45:40;7.15;;;5.75;;
70981;SDS011;58640;51.320;9.456;2023-05-06T05:48:05;7.72;;;5.97;;
70981;SDS011;58640;51.320;9.456;2023-05-06T05:50:31;8.23;;;5.35;;
70981;SDS011;58640;51.320;9.456;2023-05-06T05:52:56;9.40;;;6.65;;
70981;SDS011;58640;51.320;9.456;2023-05-06T05:55:21;8.00;;;5.93;;
70981;SDS011;58640;51.320;9.456;2023-05-06T05:57:47;7.25;;;6.35;;
70981;SDS011;58640;51.320;9.456;2023-05-06T06:00:12;8.88;;;6.22;;
70981;SDS011;58640;51.320;9.456;2023-05-06T06:02:38;8.15;;;6.05;;
70981;SDS011;58640;51.320;9.456;2023-05-06T06:05:03;7.97;;;6.13;;
70981;SDS011;58640;51.320;9.456;2023-05-06T06:07:29;6.70;;;5.75;;
70981;SDS011;58640;51.320;9.456;2023-05-06T06:09:54;7.00;;;5.05;;
70981;SDS011;58640;51.320;9.456;2023-05-06T06:12:20;5.90;;;5.13;;
70981;SDS011;58640;51.320;9.456;2023-05-06T06:14:46;7.65;;;5.30;;
70981;SDS011;58640;51.320;9.456;2023-05-06T06:17:13;5.70;;;5.18;;
70981;SDS011;58640;51.320;9.456;2023-05-06T06:19:39;6.05;;;5.13;;
70981;SDS011;58640;51.320;9.456;2023-05-06T06:22:04;6.70;;;5.00;;
70981;SDS011;58640;51.320;9.456;2023-05-06T06:24:29;5.25;;;4.50;;
70981;SDS011;58640;51.320;9.456;2023-05-06T06:26:58;6.15;;;3.65;;
70981;SDS011;58640;51.320;9.456;2023-05-06T06:29:24;5.07;;;4.43;;
70981;SDS011;58640;51.320;9.456;2023-05-06T06:31:49;5.07;;;4.40;;
70981;SDS011;58640;51.320;9.456;2023-05-06T06:34:15;5.65;;;4.97;;
70981;SDS011;58640;51.320;9.456;2023-05-06T06:36:40;4.97;;;4.47;;
70981;SDS011;58640;51.320;9.456;2023-05-06T06:39:09;5.50;;;4.38;;
70981;SDS011;58640;51.320;9.456;2023-05-06T06:41:34;4.80;;;4.20;;
70981;SDS011;58640;51.320;9.456;2023-05-06T06:44:00;5.80;;;4.50;;
70981;SDS011;58640;51.320;9.456;2023-05-06T06:46:25;5.60;;;4.57;;
70981;SDS011;58640;51.320;9.456;2023-05-06T06:48:50;7.28;;;5.15;;
70981;SDS011;58640;51.320;9.456;2023-05-06T06:51:16;4.70;;;4.30;;
70981;SDS011;58640;51.320;9.456;2023-05-06T06:53:41;4.70;;;4.00;;
70981;SDS011;58640;51.320;9.456;2023-05-06T06:56:10;4.68;;;3.75;;
70981;SDS011;58640;51.320;9.456;2023-05-06T06:58:38;4.00;;;3.60;;
70981;SDS011;58640;51.320;9.456;2023-05-06T07:01:03;5.25;;;4.75;;
70981;SDS011;58640;51.320;9.456;2023-05-06T07:03:29;4.47;;;4.05;;
70981;SDS011;58640;51.320;9.456;2023-05-06T07:05:54;5.25;;;4.75;;
70981;SDS011;58640;51.320;9.456;2023-05-06T07:08:19;5.68;;;4.30;;
70981;SDS011;58640;51.320;9.456;2023-05-06T07:10:46;4.35;;;3.95;;
70981;SDS011;58640;51.320;9.456;2023-05-06T07:13:11;3.65;;;3.33;;
70981;SDS011;58640;51.320;9.456;2023-05-06T07:15:37;4.00;;;3.60;;
70981;SDS011;58640;51.320;9.456;2023-05-06T07:18:02;4.80;;;3.65;;
70981;SDS011;58640;51.320;9.456;2023-05-06T07:20:28;5.55;;;4.55;;
70981;SDS011;58640;51.320;9.456;2023-05-06T07:22:53;4.40;;;4.00;;
70981;SDS011;58640;51.320;9.456;2023-05-06T07:25:18;5.10;;;4.60;;
70981;SDS011;58640;51.320;9.456;2023-05-06T07:27:44;5.07;;;4.68;;
70981;SDS011;58640;51.320;9.456;2023-05-06T07:30:09;7.05;;;3.90;;
70981;SDS011;58640;51.320;9.456;2023-05-06T07:32:35;3.83;;;3.45;;
70981;SDS011;58640;51.320;9.456;2023-05-06T07:35:01;5.78;;;4.05;;
70981;SDS011;58640;51.320;9.456;2023-05-06T07:37:27;4.53;;;4.13;;
70981;SDS011;58640;51.320;9.456;2023-05-06T07:39:55;4.65;;;3.90;;
70981;SDS011;58640;51.320;9.456;2023-05-06T07:42:21;5.13;;;4.50;;
70981;SDS011;58640;51.320;9.456;2023-05-06T07:44:46;4.05;;;3.72;;
70981;SDS011;58640;51.320;9.456;2023-05-06T07:47:15;4.78;;;3.25;;
70981;SDS011;58640;51.320;9.456;2023-05-06T07:49:49;4.22;;;3.25;;
70981;SDS011;58640;51.320;9.456;2023-05-06T07:52:14;4.90;;;4.40;;
70981;SDS011;58640;51.320;9.456;2023-05-06T07:54:40;4.68;;;3.90;;
70981;SDS011;58640;51.320;9.456;2023-05-06T07:57:05;4.47;;;3.92;;
70981;SDS011;58640;51.320;9.456;2023-05-06T07:59:31;4.55;;;4.15;;
70981;SDS011;58640;51.320;9.456;2023-05-06T08:01:56;3.50;;;3.20;;
70981;SDS011;58640;51.320;9.456;2023-05-06T08:04:21;3.28;;;2.97;;
70981;SDS011;58640;51.320;9.456;2023-05-06T08:06:47;3.10;;;2.42;;
70981;SDS011;58640;51.320;9.456;2023-05-06T08:09:12;3.10;;;2.80;;
70981;SDS011;58640;51.320;9.456;2023-05-06T08:11:38;3.45;;;2.65;;
70981;SDS011;58640;51.320;9.456;2023-05-06T08:14:03;4.10;;;2.80;;
70981;SDS011;58640;51.320;9.456;2023-05-06T08:16:28;3.20;;;2.78;;
70981;SDS011;58640;51.320;9.456;2023-05-06T08:18:54;2.92;;;2.70;;
70981;SDS011;58640;51.320;9.456;2023-05-06T08:21:19;3.03;;;2.50;;
70981;SDS011;58640;51.320;9.456;2023-05-06T08:23:44;3.70;;;3.10;;
70981;SDS011;58640;51.320;9.456;2023-05-06T08:26:10;3.00;;;2.70;;
70981;SDS011;58640;51.320;9.456;2023-05-06T08:28:35;2.58;;;2.38;;
70981;SDS011;58640;51.320;9.456;2023-05-06T08:31:01;3.40;;;2.25;;
70981;SDS011;58640;51.320;9.456;2023-05-06T08:33:27;6.13;;;2.75;;
70981;SDS011;58640;51.320;9.456;2023-05-06T08:35:54;5.82;;;2.70;;
70981;SDS011;58640;51.320;9.456;2023-05-06T08:38:21;3.08;;;2.58;;
70981;SDS011;58640;51.320;9.456;2023-05-06T08:40:46;4.20;;;2.55;;
70981;SDS011;58640;51.320;9.456;2023-05-06T08:43:12;10.55;;;2.42;;
70981;SDS011;58640;51.320;9.456;2023-05-06T08:45:39;2.85;;;2.40;;
70981;SDS011;58640;51.320;9.456;2023-05-06T08:48:05;4.28;;;2.13;;
70981;SDS011;58640;51.320;9.456;2023-05-06T08:50:31;3.13;;;2.20;;
70981;SDS011;58640;51.320;9.456;2023-05-06T08:52:58;2.38;;;1.80;;
70981;SDS011;58640;51.320;9.456;2023-05-06T08:55:25;2.20;;;1.70;;
70981;SDS011;58640;51.320;9.456;2023-05-06T08:57:51;4.88;;;1.52;;
70981;SDS011;58640;51.320;9.456;2023-05-06T09:00:17;39.05;;;3.97;;
70981;SDS011;58640;51.320;9.456;2023-05-06T09:02:43;248.52;;;17.65;;
70981;SDS011;58640;51.320;9.456;2023-05-06T09:05:08;14.20;;;2.90;;
70981;SDS011;58640;51.320;9.456;2023-05-06T09:07:34;2.60;;;2.40;;
70981;SDS011;58640;51.320;9.456;2023-05-06T09:09:59;2.88;;;2.45;;
70981;SDS011;58640;51.320;9.456;2023-05-06T09:12:28;2.45;;;2.25;;
70981;SDS011;58640;51.320;9.456;2023-05-06T09:14:54;2.97;;;2.13;;
70981;SDS011;58640;51.320;9.456;2023-05-06T09:17:20;2.95;;;2.63;;
70981;SDS011;58640;51.320;9.456;2023-05-06T09:19:52;2.95;;;1.92;;
70981;SDS011;58640;51.320;9.456;2023-05-06T09:22:22;2.67;;;2.20;;
70981;SDS011;58640;51.320;9.456;2023-05-06T09:24:49;6.15;;;4.85;;
70981;SDS011;58640;51.320;9.456;2023-05-06T09:29:59;2.33;;;2.00;;
70981;SDS011;58640;51.320;9.456;2023-05-06T09:32:29;6.90;;;1.95;;
70981;SDS011;58640;51.320;9.456;2023-05-06T09:34:55;2.22;;;2.03;;
70981;SDS011;58640;51.320;9.456;2023-05-06T09:37:21;1.98;;;1.17;;
70981;SDS011;58640;51.320;9.456;2023-05-06T09:39:47;2.13;;;1.75;;
70981;SDS011;58640;51.320;9.456;2023-05-06T09:42:12;2.67;;;1.70;;
70981;SDS011;58640;51.320;9.456;2023-05-06T09:44:38;2.80;;;1.63;;
70981;SDS011;58640;51.320;9.456;2023-05-06T09:47:03;2.08;;;1.48;;
70981;SDS011;58640;51.320;9.456;2023-05-06T09:49:30;2.20;;;1.65;;
70981;SDS011;58640;51.320;9.456;2023-05-06T09:51:55;2.15;;;1.83;;
70981;SDS011;58640;51.320;9.456;2023-05-06T09:54:21;1.90;;;1.45;;
70981;SDS011;58640;51.320;9.456;2023-05-06T09:56:48;3.33;;;1.80;;
70981;SDS011;58640;51.320;9.456;2023-05-06T09:59:14;3.63;;;1.90;;
70981;SDS011;58640;51.320;9.456;2023-05-06T10:01:42;3.50;;;1.60;;
70981;SDS011;58640;51.320;9.456;2023-05-06T10:07:02;4.20;;;1.80;;
70981;SDS011;58640;51.320;9.456;2023-05-06T10:09:37;7.70;;;1.83;;
70981;SDS011;58640;51.320;9.456;2023-05-06T10:15:28;10.70;;;2.35;;
70981;SDS011;58640;51.320;9.456;2023-05-06T10:18:20;4.40;;;1.90;;
70981;SDS011;58640;51.320;9.456;2023-05-06T10:27:56;5.03;;;2.20;;
70981;SDS011;58640;51.320;9.456;2023-05-06T10:30:51;4.50;;;2.20;;
70981;SDS011;58640;51.320;9.456;2023-05-06T10:33:17;5.43;;;1.85;;
70981;SDS011;58640;51.320;9.456;2023-05-06T10:35:49;5.38;;;1.48;;
70981;SDS011;58640;51.320;9.456;2023-05-06T10:38:22;1.90;;;1.38;;
70981;SDS011;58640;51.320;9.456;2023-05-06T10:40:52;2.78;;;1.13;;
70981;SDS011;58640;51.320;9.456;2023-05-06T10:43:19;16.80;;;2.00;;
70981;SDS011;58640;51.320;9.456;2023-05-06T10:46:06;5.55;;;2.13;;
70981;SDS011;58640;51.320;9.456;2023-05-06T10:48:34;5.18;;;1.63;;
70981;SDS011;58640;51.320;9.456;2023-05-06T10:59:05;386.35;;;24.95;;
70981;SDS011;58640;51.320;9.456;2023-05-06T11:01:34;3.75;;;2.22;;
70981;SDS011;58640;51.320;9.456;2023-05-06T11:04:03;1.83;;;1.48;;
70981;SDS011;58640;51.320;9.456;2023-05-06T11:07:01;2.35;;;1.42;;
70981;SDS011;58640;51.320;9.456;2023-05-06T11:09:30;1.73;;;1.15;;
70981;SDS011;58640;51.320;9.456;2023-05-06T11:11:59;4.32;;;1.60;;
70981;SDS011;58640;51.320;9.456;2023-05-06T11:14:30;3.72;;;1.48;;
70981;SDS011;58640;51.320;9.456;2023-05-06T11:17:00;2.88;;;1.42;;
70981;SDS011;58640;51.320;9.456;2023-05-06T11:19:45;2.63;;;1.25;;
70981;SDS011;58640;51.320;9.456;2023-05-06T11:22:11;2.85;;;1.40;;
70981;SDS011;58640;51.320;9.456;2023-05-06T11:25:04;4.72;;;1.52;;
70981;SDS011;58640;51.320;9.456;2023-05-06T11:27:30;3.38;;;1.67;;
70981;SDS011;58640;51.320;9.456;2023-05-06T11:29:56;2.45;;;1.70;;
70981;SDS011;58640;51.320;9.456;2023-05-06T11:32:22;7.85;;;1.55;;
70981;SDS011;58640;51.320;9.456;2023-05-06T11:34:53;8.95;;;1.65;;
70981;SDS011;58640;51.320;9.456;2023-05-06T11:37:26;12.85;;;1.55;;
70981;SDS011;58640;51.320;9.456;2023-05-06T11:39:53;5.88;;;0.98;;
70981;SDS011;58640;51.320;9.456;2023-05-06T11:42:25;71.68;;;5.53;;
70981;SDS011;58640;51.320;9.456;2023-05-06T11:44:52;20.23;;;1.65;;
70981;SDS011;58640;51.320;9.456;2023-05-06T11:47:21;8.82;;;1.27;;
70981;SDS011;58640;51.320;9.456;2023-05-06T11:49:49;11.20;;;1.25;;
70981;SDS011;58640;51.320;9.456;2023-05-06T11:52:19;8.32;;;1.10;;
70981;SDS011;58640;51.320;9.456;2023-05-06T11:54:45;35.70;;;3.03;;
70981;SDS011;58640;51.320;9.456;2023-05-06T11:57:11;38.78;;;2.78;;
70981;SDS011;58640;51.320;9.456;2023-05-06T11:59:37;8.73;;;1.52;;
70981;SDS011;58640;51.320;9.456;2023-05-06T12:02:08;0.82;;;0.70;;
70981;SDS011;58640;51.320;9.456;2023-05-06T12:07:03;4.53;;;0.80;;
70981;SDS011;58640;51.320;9.456;2023-05-06T12:09:30;7.75;;;1.63;;
70981;SDS011;58640;51.320;9.456;2023-05-06T12:11:56;1.27;;;1.00;;
70981;SDS011;58640;51.320;9.456;2023-05-06T12:14:21;2.72;;;1.55;;
70981;SDS011;58640;51.320;9.456;2023-05-06T12:16:47;3.90;;;1.50;;
70981;SDS011;58640;51.320;9.456;2023-05-06T12:19:14;2.67;;;1.20;;
70981;SDS011;58640;51.320;9.456;2023-05-06T12:21:40;1.83;;;1.30;;
70981;SDS011;58640;51.320;9.456;2023-05-06T12:24:06;2.63;;;1.80;;
70981;SDS011;58640;51.320;9.456;2023-05-06T12:26:41;3.53;;;1.77;;
70981;SDS011;58640;51.320;9.456;2023-05-06T12:29:11;3.42;;;2.47;;
70981;SDS011;58640;51.320;9.456;2023-05-06T12:31:41;3.53;;;1.40;;
70981;SDS011;58640;51.320;9.456;2023-05-06T13:36:20;2.00;;;1.45;;
70981;SDS011;58640;51.320;9.456;2023-05-06T13:38:48;3.03;;;1.10;;
70981;SDS011;58640;51.320;9.456;2023-05-06T13:41:13;1.20;;;0.95;;
70981;SDS011;58640;51.320;9.456;2023-05-06T13:43:39;10.98;;;6.05;;
70981;SDS011;58640;51.320;9.456;2023-05-06T13:46:04;2.65;;;1.77;;
70981;SDS011;58640;51.320;9.456;2023-05-06T13:48:32;4.40;;;1.73;;
70981;SDS011;58640;51.320;9.456;2023-05-06T13:50:58;2.05;;;1.25;;
70981;SDS011;58640;51.320;9.456;2023-05-06T13:53:23;1.35;;;1.20;;
70981;SDS011;58640;51.320;9.456;2023-05-06T13:55:48;2.72;;;1.10;;
70981;SDS011;58640;51.320;9.456;2023-05-06T13:58:14;1.38;;;1.27;;
70981;SDS011;58640;51.320;9.456;2023-05-06T14:00:41;1.83;;;1.17;;
70981;SDS011;58640;51.320;9.456;2023-05-06T14:03:06;5.32;;;1.25;;
70981;SDS011;58640;51.320;9.456;2023-05-06T14:05:31;1.20;;;1.10;;
70981;SDS011;58640;51.320;9.456;2023-05-06T14:07:57;2.58;;;1.02;;
70981;SDS011;58640;51.320;9.456;2023-05-06T14:10:22;7.75;;;3.72;;
70981;SDS011;58640;51.320;9.456;2023-05-06T14:12:47;4.15;;;2.00;;
70981;SDS011;58640;51.320;9.456;2023-05-06T14:15:13;2.65;;;1.58;;
70981;SDS011;58640;51.320;9.456;2023-05-06T14:17:39;3.78;;;2.80;;
70981;SDS011;58640;51.320;9.456;2023-05-06T14:20:05;2.03;;;1.20;;
70981;SDS011;58640;51.320;9.456;2023-05-06T14:22:31;3.00;;;1.58;;
70981;SDS011;58640;51.320;9.456;2023-05-06T14:24:56;1.85;;;1.30;;
70981;SDS011;58640;51.320;9.456;2023-05-06T14:27:22;3.03;;;1.42;;
70981;SDS011;58640;51.320;9.456;2023-05-06T14:29:47;1.33;;;1.23;;
70981;SDS011;58640;51.320;9.456;2023-05-06T14:32:12;1.77;;;1.30;;
70981;SDS011;58640;51.320;9.456;2023-05-06T14:34:38;3.28;;;1.25;;
70981;SDS011;58640;51.320;9.456;2023-05-06T14:37:03;2.33;;;1.40;;
70981;SDS011;58640;51.320;9.456;2023-05-06T14:39:29;1.67;;;1.15;;
70981;SDS011;58640;51.320;9.456;2023-05-06T14:41:54;1.33;;;1.08;;
70981;SDS011;58640;51.320;9.456;2023-05-06T14:44:19;4.18;;;2.60;;
70981;SDS011;58640;51.320;9.456;2023-05-06T14:46:45;2.45;;;1.10;;
70981;SDS011;58640;51.320;9.456;2023-05-06T14:49:10;2.58;;;1.30;;
70981;SDS011;58640;51.320;9.456;2023-05-06T14:51:36;3.85;;;1.25;;
70981;SDS011;58640;51.320;9.456;2023-05-06T14:54:01;1.23;;;1.13;;
70981;SDS011;58640;51.320;9.456;2023-05-06T14:56:26;2.15;;;1.10;;
70981;SDS011;58640;51.320;9.456;2023-05-06T14:58:52;2.60;;;1.15;;
70981;SDS011;58640;51.320;9.456;2023-05-06T15:01:18;1.38;;;1.27;;
70981;SDS011;58640;51.320;9.456;2023-05-06T15:03:43;1.15;;;1.05;;
70981;SDS011;58640;51.320;9.456;2023-05-06T15:06:09;2.30;;;0.90;;
70981;SDS011;58640;51.320;9.456;2023-05-06T15:08:35;4.47;;;1.20;;
70981;SDS011;58640;51.320;9.456;2023-05-06T15:11:01;3.45;;;1.20;;
70981;SDS011;58640;51.320;9.456;2023-05-06T15:13:27;2.40;;;1.30;;
70981;SDS011;58640;51.320;9.456;2023-05-06T15:15:53;1.27;;;0.90;;
70981;SDS011;58640;51.320;9.456;2023-05-06T15:18:18;1.45;;;1.00;;
70981;SDS011;58640;51.320;9.456;2023-05-06T15:20:43;1.50;;;1.02;;
70981;SDS011;58640;51.320;9.456;2023-05-06T15:23:09;2.72;;;1.20;;
70981;SDS011;58640;51.320;9.456;2023-05-06T15:25:34;1.08;;;0.98;;
70981;SDS011;58640;51.320;9.456;2023-05-06T15:28:00;2.40;;;0.80;;
70981;SDS011;58640;51.320;9.456;2023-05-06T15:30:25;1.60;;;1.10;;
70981;SDS011;58640;51.320;9.456;2023-05-06T15:32:50;5.78;;;1.25;;
70981;SDS011;58640;51.320;9.456;2023-05-06T15:35:16;2.80;;;1.00;;
70981;SDS011;58640;51.320;9.456;2023-05-06T15:37:41;1.77;;;0.80;;
70981;SDS011;58640;51.320;9.456;2023-05-06T15:40:07;5.65;;;1.17;;
70981;SDS011;58640;51.320;9.456;2023-05-06T15:42:36;0.90;;;0.90;;
70981;SDS011;58640;51.320;9.456;2023-05-06T15:45:02;3.50;;;1.02;;
70981;SDS011;58640;51.320;9.456;2023-05-06T15:47:28;4.05;;;1.15;;
70981;SDS011;58640;51.320;9.456;2023-05-06T15:49:54;1.67;;;1.17;;
70981;SDS011;58640;51.320;9.456;2023-05-06T15:52:20;2.88;;;1.15;;
70981;SDS011;58640;51.320;9.456;2023-05-06T15:54:46;2.42;;;0.98;;
70981;SDS011;58640;51.320;9.456;2023-05-06T15:57:11;11.50;;;1.45;;
70981;SDS011;58640;51.320;9.456;2023-05-06T15:59:37;13.15;;;1.52;;
70981;SDS011;58640;51.320;9.456;2023-05-06T16:02:02;97.93;;;4.78;;
70981;SDS011;58640;51.320;9.456;2023-05-06T16:04:28;396.25;;;27.40;;
70981;SDS011;58640;51.320;9.456;2023-05-06T16:06:53;18.13;;;2.55;;
70981;SDS011;58640;51.320;9.456;2023-05-06T16:09:19;10.35;;;1.30;;
70981;SDS011;58640;51.320;9.456;2023-05-06T16:11:45;1.83;;;1.35;;
70981;SDS011;58640;51.320;9.456;2023-05-06T16:14:11;1.60;;;1.10;;
70981;SDS011;58640;51.320;9.456;2023-05-06T16:16:37;1.50;;;1.00;;
70981;SDS011;58640;51.320;9.456;2023-05-06T16:19:02;3.13;;;1.02;;
70981;SDS011;58640;51.320;9.456;2023-05-06T16:21:28;1.20;;;1.00;;